createdAt,value
2018-09-15T00:03:16.964Z,101640.00
2018-09-15T00:08:10.266Z,101636.00
2018-09-15T00:13:03.662Z,101632.00
2018-09-15T00:17:58.031Z,101630.00
2018-09-15T00:22:51.284Z,101634.00
2018-09-15T00:27:44.567Z,101633.00
2018-09-15T00:32:37.805Z,101630.00
2018-09-15T00:37:31.072Z,101629.00
2018-09-15T00:42:24.352Z,101634.00
2018-09-15T00:47:17.939Z,101635.00
2018-09-15T00:52:11.752Z,101645.00
2018-09-15T00:57:05.084Z,101646.00
2018-09-15T01:01:58.340Z,101649.00
2018-09-15T01:06:51.625Z,101655.00
2018-09-15T01:11:44.917Z,101658.00
2018-09-15T01:16:38.887Z,101659.00
2018-09-15T01:21:32.139Z,101664.00
2018-09-15T01:26:25.418Z,101670.00
2018-09-15T01:31:21.794Z,101674.00
2018-09-15T01:36:15.057Z,101680.00
2018-09-15T01:41:09.259Z,101679.00
2018-09-15T01:46:03.113Z,101678.00
2018-09-15T01:50:56.357Z,101687.00
2018-09-15T01:55:49.747Z,101682.00
2018-09-15T02:00:42.997Z,101682.00
2018-09-15T02:05:36.195Z,101677.00
2018-09-15T02:10:29.462Z,101676.00
2018-09-15T02:15:22.691Z,101678.00
2018-09-15T02:20:15.950Z,101674.00
2018-09-15T02:25:12.061Z,101670.00
2018-09-15T02:30:05.453Z,101679.00
2018-09-15T02:34:58.773Z,101678.00
2018-09-15T02:39:52.675Z,101685.00
2018-09-15T02:44:45.927Z,101682.00
2018-09-15T02:49:39.158Z,101691.00
2018-09-15T02:54:32.430Z,101690.00
2018-09-15T02:59:26.091Z,101700.00
2018-09-15T03:04:19.648Z,101696.00
2018-09-15T03:09:13.668Z,101695.00
2018-09-15T03:14:06.947Z,101693.00
2018-09-15T03:19:00.212Z,101689.00
2018-09-15T03:23:53.441Z,101693.00
2018-09-15T03:28:46.942Z,101693.00
2018-09-15T03:33:40.992Z,101692.00
2018-09-15T03:38:34.235Z,101689.00
2018-09-15T03:43:27.472Z,101683.00
2018-09-15T03:48:20.722Z,101694.00
2018-09-15T03:53:13.955Z,101692.00
2018-09-15T03:58:07.202Z,101693.00
2018-09-15T04:03:00.453Z,101702.00
2018-09-15T04:07:53.729Z,101706.00
2018-09-15T04:12:47.029Z,101706.00
2018-09-15T04:17:40.370Z,101711.00
2018-09-15T04:22:33.611Z,101714.00
2018-09-15T04:27:26.866Z,101718.00
2018-09-15T04:32:20.071Z,101724.00
2018-09-15T04:37:13.304Z,101727.00
2018-09-15T04:42:06.581Z,101726.00
2018-09-15T04:46:59.832Z,101724.00
2018-09-15T04:51:53.140Z,101729.00
2018-09-15T04:56:46.488Z,101735.00
2018-09-15T05:01:39.718Z,101736.00
2018-09-15T05:06:33.024Z,101731.00
2018-09-15T05:11:26.274Z,101745.00
2018-09-15T05:16:19.529Z,101752.00
2018-09-15T05:21:12.768Z,101753.00
2018-09-15T05:26:06.054Z,101759.00
2018-09-15T05:30:59.544Z,101764.00
2018-09-15T05:35:52.749Z,101766.00
2018-09-15T05:40:45.986Z,101765.00
2018-09-15T05:45:39.266Z,101761.00
2018-09-15T05:50:32.514Z,101772.00
2018-09-15T05:55:25.730Z,101774.00
2018-09-15T06:00:19.128Z,101780.00
2018-09-15T06:05:13.021Z,101781.00
2018-09-15T06:10:06.338Z,101785.00
2018-09-15T06:14:59.592Z,101787.00
2018-09-15T06:19:52.849Z,101795.00
2018-09-15T06:24:46.094Z,101805.00
2018-09-15T06:29:39.327Z,101810.00
2018-09-15T06:34:32.659Z,101804.00
2018-09-15T06:39:25.925Z,101801.00
2018-09-15T06:44:19.154Z,101794.00
2018-09-15T06:49:12.417Z,101794.00
2018-09-15T06:54:05.667Z,101800.00
2018-09-15T06:58:58.964Z,101806.00
2018-09-15T07:03:52.213Z,101798.00
2018-09-15T07:08:45.621Z,101802.00
2018-09-15T07:13:38.864Z,101820.00
2018-09-15T07:18:32.127Z,101836.00
2018-09-15T07:23:25.393Z,101828.00
2018-09-15T07:28:18.698Z,101829.00
2018-09-15T07:33:12.943Z,101846.00
2018-09-15T07:38:06.291Z,101835.00
2018-09-15T07:43:00.127Z,101849.00
2018-09-15T07:47:53.382Z,101851.00
2018-09-15T07:52:46.653Z,101848.00
2018-09-15T07:57:40.170Z,101840.00
2018-09-15T08:02:33.328Z,101838.00
2018-09-15T08:07:26.589Z,101853.00
2018-09-15T08:12:20.093Z,101845.00
2018-09-15T08:17:13.407Z,101841.00
2018-09-15T08:22:06.657Z,101840.00
2018-09-15T08:27:00.238Z,101851.00
2018-09-15T08:31:53.528Z,101857.00
2018-09-15T08:36:46.816Z,101877.00
2018-09-15T08:41:40.338Z,101864.00
2018-09-15T08:46:33.852Z,101860.00
2018-09-15T08:51:27.113Z,101861.00
2018-09-15T08:56:21.095Z,101859.00
2018-09-15T09:01:14.338Z,101857.00
2018-09-15T09:06:07.617Z,101860.00
2018-09-15T09:11:00.845Z,101869.00
2018-09-15T09:15:54.154Z,101882.00
2018-09-15T09:20:47.479Z,101886.00
2018-09-15T09:25:40.742Z,101886.00
2018-09-15T09:30:34.271Z,101893.00
2018-09-15T09:35:27.492Z,101889.00
2018-09-15T09:40:21.593Z,101887.00
2018-09-15T09:45:14.821Z,101894.00
2018-09-15T09:50:08.098Z,101908.00
2018-09-15T09:55:01.414Z,101906.00
2018-09-15T09:59:54.707Z,101891.00
2018-09-15T10:04:48.032Z,101892.00
2018-09-15T10:09:41.284Z,101886.00
2018-09-15T10:14:34.528Z,101886.00
2018-09-15T10:19:27.773Z,101889.00
2018-09-15T10:24:21.075Z,101896.00
2018-09-15T10:29:14.421Z,101898.00
2018-09-15T10:34:07.711Z,101897.00
2018-09-15T10:39:01.009Z,101894.00
2018-09-15T10:43:54.255Z,101894.00
2018-09-15T10:48:47.565Z,101891.00
2018-09-15T10:53:41.791Z,101888.00
2018-09-15T10:58:35.021Z,101879.00
2018-09-15T11:03:28.249Z,101885.00
2018-09-15T11:08:21.491Z,101882.00
2018-09-15T11:13:14.780Z,101886.00
2018-09-15T11:18:08.053Z,101882.00
2018-09-15T11:23:01.328Z,101881.00
2018-09-15T11:27:54.779Z,101880.00
2018-09-15T11:32:48.145Z,101879.00
2018-09-15T11:37:41.495Z,101881.00
2018-09-15T11:42:34.900Z,101884.00
2018-09-15T11:47:28.258Z,101880.00
2018-09-15T11:52:21.483Z,101875.00
2018-09-15T11:57:14.868Z,101881.00
2018-09-15T12:02:08.523Z,101866.00
2018-09-15T12:07:01.752Z,101865.00
2018-09-15T12:11:55.007Z,101862.00
2018-09-15T12:16:48.260Z,101856.00
2018-09-15T12:21:41.700Z,101861.00
2018-09-15T12:26:34.926Z,101863.00
2018-09-15T12:31:28.168Z,101863.00
2018-09-15T12:36:21.462Z,101862.00
2018-09-15T12:41:14.741Z,101856.00
2018-09-15T12:46:08.026Z,101871.00
2018-09-15T12:51:01.272Z,101866.00
2018-09-15T12:55:54.505Z,101868.00
2018-09-15T13:00:47.819Z,101865.00
2018-09-15T13:05:41.116Z,101864.00
2018-09-15T13:10:34.355Z,101878.00
2018-09-15T13:15:28.593Z,101878.00
2018-09-15T13:20:22.530Z,101880.00
2018-09-15T13:25:15.819Z,101875.00
2018-09-15T13:30:09.352Z,101867.00
2018-09-15T13:35:02.598Z,101851.00
2018-09-15T13:39:55.846Z,101840.00
2018-09-15T13:44:49.117Z,101846.00
2018-09-15T13:49:42.405Z,101836.00
2018-09-15T13:54:35.640Z,101835.00
2018-09-15T13:59:28.965Z,101842.00
2018-09-15T14:04:22.341Z,101847.00
2018-09-15T14:09:15.524Z,101854.00
2018-09-15T14:14:08.780Z,101849.00
2018-09-15T14:19:02.083Z,101852.00
2018-09-15T14:23:55.368Z,101861.00
2018-09-15T14:28:48.670Z,101859.00
2018-09-15T14:33:42.045Z,101869.00
2018-09-15T14:38:35.368Z,101880.00
2018-09-15T14:43:28.719Z,101874.00
2018-09-15T14:48:21.987Z,101876.00
2018-09-15T14:53:15.245Z,101867.00
2018-09-15T14:58:08.840Z,101870.00
2018-09-15T15:03:04.267Z,101870.00
2018-09-15T15:07:57.653Z,101869.00
2018-09-15T15:12:51.061Z,101876.00
2018-09-15T15:17:44.292Z,101885.00
2018-09-15T15:22:37.848Z,101887.00
2018-09-15T15:27:31.118Z,101878.00
2018-09-15T15:32:24.452Z,101876.00
2018-09-15T15:37:17.681Z,101871.00
2018-09-15T15:42:10.933Z,101877.00
2018-09-15T15:47:04.223Z,101874.00
2018-09-15T15:51:57.558Z,101873.00
2018-09-15T15:56:50.861Z,101876.00
2018-09-15T16:01:44.136Z,101874.00
2018-09-15T16:06:37.396Z,101870.00
2018-09-15T16:11:30.626Z,101870.00
2018-09-15T16:16:23.902Z,101880.00
2018-09-15T16:21:17.206Z,101877.00
2018-09-15T16:26:10.545Z,101877.00
2018-09-15T16:31:03.889Z,101873.00
2018-09-15T16:35:57.162Z,101878.00
2018-09-15T16:40:50.433Z,101873.00
2018-09-15T16:45:43.726Z,101870.00
2018-09-15T16:50:36.931Z,101878.00
2018-09-15T16:55:30.193Z,101877.00
2018-09-15T17:00:23.434Z,101880.00
2018-09-15T17:05:16.663Z,101888.00
2018-09-15T17:10:09.899Z,101878.00
2018-09-15T17:15:03.173Z,101876.00
2018-09-15T17:19:56.490Z,101879.00
2018-09-15T17:24:49.728Z,101876.00
2018-09-15T17:29:42.968Z,101883.00
2018-09-15T17:34:36.319Z,101886.00
2018-09-15T17:39:29.563Z,101887.00
2018-09-15T17:44:22.796Z,101899.00
2018-09-15T17:49:16.063Z,101906.00
2018-09-15T17:54:09.370Z,101907.00
2018-09-15T17:59:02.726Z,101904.00
2018-09-15T18:03:55.952Z,101912.00
2018-09-15T18:08:49.594Z,101914.00
2018-09-15T18:13:42.878Z,101917.00
2018-09-15T18:18:36.220Z,101916.00
2018-09-15T18:23:29.437Z,101922.00
2018-09-15T18:28:22.735Z,101926.00
2018-09-15T18:33:15.963Z,101930.00
2018-09-15T18:38:09.266Z,101938.00
2018-09-15T18:43:02.551Z,101939.00
2018-09-15T18:47:56.304Z,101942.00
2018-09-15T18:52:49.564Z,101942.00
2018-09-15T18:57:42.783Z,101946.00
2018-09-15T19:02:36.242Z,101958.00
2018-09-15T19:07:29.668Z,101956.00
2018-09-15T19:12:22.985Z,101959.00
2018-09-15T19:17:16.246Z,101958.00
2018-09-15T19:22:09.622Z,101958.00
2018-09-15T19:27:02.958Z,101962.00
2018-09-15T19:31:56.219Z,101964.00
2018-09-15T19:36:49.908Z,101964.00
2018-09-15T19:41:43.169Z,101968.00
2018-09-15T19:46:37.826Z,101969.00
2018-09-15T19:51:31.088Z,101980.00
2018-09-15T19:56:24.328Z,101980.00
2018-09-15T20:01:17.540Z,101978.00
2018-09-15T20:06:11.010Z,101980.00
2018-09-15T20:11:04.231Z,101985.00
2018-09-15T20:15:55.852Z,101989.00
2018-09-15T20:20:47.509Z,101971.00
2018-09-15T20:25:41.738Z,101987.00
2018-09-15T20:30:34.976Z,101991.00
2018-09-15T20:35:28.201Z,101984.00
2018-09-15T20:40:21.489Z,101987.00
2018-09-15T20:45:14.791Z,101994.00
2018-09-15T20:50:08.784Z,101995.00
2018-09-15T20:55:02.115Z,102002.00
2018-09-15T20:59:55.338Z,101999.00
2018-09-15T21:04:49.242Z,101997.00
2018-09-15T21:09:42.778Z,101991.00
2018-09-15T21:14:36.095Z,102000.00
2018-09-15T21:19:29.347Z,101999.00
2018-09-15T21:24:22.584Z,101995.00
2018-09-15T21:29:15.838Z,101995.00
2018-09-15T21:34:09.055Z,102003.00
2018-09-15T21:39:02.395Z,102008.00
2018-09-15T21:43:55.671Z,102009.00
2018-09-15T21:48:48.915Z,102005.00
2018-09-15T21:53:42.258Z,102003.00
2018-09-15T21:58:35.449Z,102009.00
2018-09-15T22:03:28.782Z,102006.00
2018-09-15T22:08:22.083Z,102006.00
2018-09-15T22:13:15.375Z,102006.00
2018-09-15T22:18:08.630Z,102013.00
2018-09-15T22:23:01.908Z,102016.00
2018-09-15T22:27:55.136Z,102018.00
2018-09-15T22:32:48.394Z,102016.00
2018-09-15T22:37:41.692Z,102022.00
2018-09-15T22:42:34.919Z,102021.00
2018-09-15T22:47:28.646Z,102013.00
2018-09-15T22:52:21.892Z,102013.00
2018-09-15T22:57:15.141Z,102011.00
2018-09-15T23:02:08.435Z,102010.00
2018-09-15T23:07:02.751Z,102015.00
2018-09-15T23:11:56.017Z,102016.00
2018-09-15T23:16:49.276Z,102007.00
2018-09-15T23:21:42.619Z,102004.00
2018-09-15T23:26:35.878Z,102000.00
2018-09-15T23:31:29.142Z,102001.00
2018-09-15T23:36:22.427Z,102003.00
2018-09-15T23:41:15.664Z,101995.00
2018-09-15T23:46:09.324Z,101987.00
2018-09-15T23:51:02.627Z,101987.00
2018-09-15T23:55:55.930Z,101982.00
